Time;durP1;ratioP1;P1;durP2;ratioP2;P2;SDS_P1;SDS_P2;PMS_P1;PMS_P2;Temp;Humidity;BMP_temperature;BMP_pressure;BME280_temperature;BME280_humidity;BME280_pressure;Samples;Min_cycle;Max_cycle;Signal;HPM_P1;HPM_P2
2023/01/10 00:02:43;;;;;;;;;;;;;;;7.74;67.27;99992.28;5014094;28;19913;-79
2023/01/10 00:05:27;;;;;;;;;;;;;;;7.72;67.95;99996.41;5024052;28;19913;-79
2023/01/10 00:08:15;;;;;;;;;;;;;;;7.83;67.68;100003.13;5020798;28;20312;-79
2023/01/10 00:13:22;;;;;;;;;;;;;;;7.98;67.09;100004.59;5006771;28;19913;-79
2023/01/10 00:14:04;;;;;;;;;;;;;;;7.84;67.24;100007.44;5021950;28;19917;-78
2023/01/10 00:16:49;;;;;;;;;;;;;;;7.42;68.07;100011.56;5032487;28;19917;-79
2023/01/10 00:19:33;;;;;;;;;;;;;;;7.77;68.88;100014.44;5032546;28;19913;-79
2023/01/10 00:22:21;;;;;;;;;;;;;;;7.91;68.97;100009.69;5012879;28;19913;-79
2023/01/10 00:25:06;;;;;;;;;;;;;;;7.81;66.61;100010.78;5020407;28;19913;-79
2023/01/10 00:28:00;;;;;;;;;;;;;;;7.55;65.81;100007.97;5023923;28;20292;-79
2023/01/10 00:31:00;;;;;;;;;;;;;;;7.60;65.80;100010.53;5028480;28;19913;-79
2023/01/10 00:33:45;;;;;;;;;;;;;;;7.50;65.87;100010.81;5012518;28;19917;-79
2023/01/10 00:36:29;;;;;;;;;;;;;;;7.38;65.37;100010.59;5000103;28;20313;-79
2023/01/10 00:39:14;;;;;;;;;;;;;;;7.44;67.50;100014.75;5012247;28;20376;-80
2023/01/10 00:45:02;;;;;;;;;;;;;;;7.49;64.53;100020.03;5011838;28;19913;-79
2023/01/10 00:47:47;;;;;;;;;;;;;;;7.21;65.74;100013.22;5020551;28;20285;-79
2023/01/10 00:50:32;;;;;;;;;;;;;;;7.30;65.09;100022.97;5022235;28;19913;-80
2023/01/10 00:53:16;;;;;;;;;;;;;;;7.26;67.64;100013.88;5026274;28;20388;-79
2023/01/10 00:56:01;;;;;;;;;;;;;;;7.41;68.03;100028.91;5009930;28;20384;-79
2023/01/10 00:58:45;;;;;;;;;;;;;;;7.43;66.77;100032.09;5006265;28;19913;-79
2023/01/10 01:01:30;;;;;;;;;;;;;;;7.39;67.35;100033.84;5023455;28;19912;-79
2023/01/10 01:04:14;;;;;;;;;;;;;;;7.59;65.88;100024.38;5018575;28;19913;-79
2023/01/10 01:06:59;;;;;;;;;;;;;;;7.49;66.34;100024.66;5004278;28;19913;-80
2023/01/10 01:12:47;;;;;;;;;;;;;;;7.70;64.47;100021.09;5016756;28;19914;-79
2023/01/10 01:15:33;;;;;;;;;;;;;;;7.41;66.79;100030.81;4998326;28;19922;-79
2023/01/10 01:18:20;;;;;;;;;;;;;;;7.32;66.98;100031.56;5001902;28;19914;-79
2023/01/10 01:21:04;;;;;;;;;;;;;;;7.36;66.50;100031.75;5006274;28;19913;-79
2023/01/10 01:23:49;;;;;;;;;;;;;;;7.10;66.54;100039.72;5015417;28;20300;-80
2023/01/10 01:26:34;;;;;;;;;;;;;;;7.09;65.53;100042.72;5017681;28;19913;-79
2023/01/10 01:29:18;;;;;;;;;;;;;;;7.30;63.62;100041.91;5022838;28;19913;-79
2023/01/10 01:32:03;;;;;;;;;;;;;;;7.19;64.26;100053.28;5024287;28;19914;-78
2023/01/10 01:34:47;;;;;;;;;;;;;;;6.96;66.66;100057.88;5016325;28;19917;-78
2023/01/10 01:37:32;;;;;;;;;;;;;;;6.93;67.21;100061.22;5009026;28;20308;-78
2023/01/10 01:40:18;;;;;;;;;;;;;;;7.08;67.25;100062.75;5015432;28;19914;-79
2023/01/10 01:43:23;;;;;;;;;;;;;;;7.18;66.69;100067.91;4996976;28;19914;-78
2023/01/10 01:46:08;;;;;;;;;;;;;;;7.33;65.90;100056.69;5005299;28;19913;-79
2023/01/10 01:48:52;;;;;;;;;;;;;;;7.18;66.04;100052.47;5029163;28;19917;-78
2023/01/10 01:51:36;;;;;;;;;;;;;;;7.05;67.41;100064.16;5013229;28;19913;-79
2023/01/10 01:54:21;;;;;;;;;;;;;;;7.00;67.21;100058.88;5026944;28;19938;-78
2023/01/10 01:57:09;;;;;;;;;;;;;;;7.15;67.03;100072.03;5035068;28;20331;-78
2023/01/10 01:59:54;;;;;;;;;;;;;;;7.28;65.87;100073.84;5013893;28;20384;-79
2023/01/10 02:02:48;;;;;;;;;;;;;;;7.39;64.17;100085.22;4995891;28;19914;-78
2023/01/10 02:05:34;;;;;;;;;;;;;;;7.27;62.69;100068.75;4995700;28;19913;-78
2023/01/10 02:08:19;;;;;;;;;;;;;;;7.22;63.98;100077.78;5009603;28;20300;-79
2023/01/10 02:11:10;;;;;;;;;;;;;;;7.34;63.73;100076.44;5026181;28;20303;-78
2023/01/10 02:13:56;;;;;;;;;;;;;;;7.35;63.77;100078.03;5021185;28;19917;-78
2023/01/10 02:16:40;;;;;;;;;;;;;;;7.31;61.67;100080.56;5034611;28;19913;-79
2023/01/10 02:19:44;;;;;;;;;;;;;;;7.24;63.63;100066.66;5034917;28;19913;-79
2023/01/10 02:22:40;;;;;;;;;;;;;;;7.54;62.79;100059.69;5024173;28;19913;-80
2023/01/10 02:25:51;;;;;;;;;;;;;;;7.68;62.33;100065.78;5014806;28;19913;-79
2023/01/10 02:28:52;;;;;;;;;;;;;;;7.70;62.13;100061.69;5012879;28;19913;-79
2023/01/10 02:31:55;;;;;;;;;;;;;;;7.81;62.03;100066.81;5008986;28;19917;-80
2023/01/10 02:35:02;;;;;;;;;;;;;;;7.81;61.73;100069.50;5023336;28;19918;-79
2023/01/10 02:37:50;;;;;;;;;;;;;;;7.69;61.33;100073.59;4994936;28;19913;-79
2023/01/10 02:40:43;;;;;;;;;;;;;;;7.64;61.59;100076.44;4997891;28;19913;-79
2023/01/10 02:43:31;;;;;;;;;;;;;;;7.66;61.54;100085.06;5014630;28;19914;-79
2023/01/10 02:46:23;;;;;;;;;;;;;;;7.69;61.39;100095.25;5014418;28;19913;-79
2023/01/10 02:49:08;;;;;;;;;;;;;;;7.78;61.36;100086.34;5021653;28;19914;-78
2023/01/10 02:51:52;;;;;;;;;;;;;;;7.74;60.48;100083.50;5015970;28;20284;-78
2023/01/10 02:54:37;;;;;;;;;;;;;;;7.85;60.38;100084.81;5013270;28;19918;-78
2023/01/10 02:57:34;;;;;;;;;;;;;;;7.80;60.49;100090.38;5022584;28;19913;-78
2023/01/10 03:00:27;;;;;;;;;;;;;;;7.76;60.17;100094.81;5027818;28;19913;-79
2023/01/10 03:03:14;;;;;;;;;;;;;;;7.72;62.18;100101.94;5014227;28;19913;-78
2023/01/10 03:06:06;;;;;;;;;;;;;;;7.80;63.59;100108.50;5014063;28;19913;-79
2023/01/10 03:08:58;;;;;;;;;;;;;;;7.75;64.67;100109.44;5016752;28;19917;-78
2023/01/10 03:11:45;;;;;;;;;;;;;;;7.77;65.96;100117.25;5013475;28;19920;-79
2023/01/10 03:14:30;;;;;;;;;;;;;;;7.80;66.02;100114.72;5024025;28;19917;-78
2023/01/10 03:17:16;;;;;;;;;;;;;;;7.87;66.00;100125.13;5021711;28;19913;-79
2023/01/10 03:20:03;;;;;;;;;;;;;;;7.89;66.84;100131.81;5016178;28;19914;-78
2023/01/10 03:22:50;;;;;;;;;;;;;;;7.96;66.50;100128.66;5006455;28;19913;-79
2023/01/10 03:25:36;;;;;;;;;;;;;;;7.99;66.18;100128.81;4998869;28;20404;-79
2023/01/10 03:28:28;;;;;;;;;;;;;;;7.93;66.13;100137.38;5003496;28;19913;-79
2023/01/10 03:31:18;;;;;;;;;;;;;;;7.93;66.65;100137.38;5015295;28;19918;-79
2023/01/10 03:34:03;;;;;;;;;;;;;;;7.92;66.47;100141.22;5021261;28;19917;-79
2023/01/10 03:36:56;;;;;;;;;;;;;;;7.92;67.21;100149.34;5014010;28;20385;-79
2023/01/10 03:39:41;;;;;;;;;;;;;;;7.91;67.36;100151.25;5032889;28;19912;-79
2023/01/10 03:44:42;;;;;;;;;;;;;;;7.87;67.31;100146.78;5006312;28;19913;-79
2023/01/10 03:45:41;;;;;;;;;;;;;;;7.88;67.18;100161.88;5001361;28;19913;-79
2023/01/10 03:48:28;;;;;;;;;;;;;;;7.96;66.98;100166.56;4999071;28;19913;-79
2023/01/10 03:51:13;;;;;;;;;;;;;;;7.98;66.82;100169.72;5002561;28;19917;-79
2023/01/10 03:54:01;;;;;;;;;;;;;;;7.84;66.58;100174.44;5006712;28;19912;-79
2023/01/10 03:56:48;;;;;;;;;;;;;;;7.83;66.89;100180.97;4993560;28;19915;-79
2023/01/10 03:59:33;;;;;;;;;;;;;;;7.86;66.50;100180.34;5018546;28;19917;-79
2023/01/10 04:02:18;;;;;;;;;;;;;;;7.79;66.84;100174.56;5015890;28;19913;-79
2023/01/10 04:05:03;;;;;;;;;;;;;;;7.88;65.36;100183.53;5026380;28;19916;-79
2023/01/10 04:07:48;;;;;;;;;;;;;;;7.68;64.54;100188.34;5022687;28;20408;-78
2023/01/10 04:10:32;;;;;;;;;;;;;;;7.77;64.50;100193.03;5023945;28;20301;-78
2023/01/10 04:13:16;;;;;;;;;;;;;;;7.56;66.93;100198.16;5024494;28;19913;-78
2023/01/10 04:16:01;;;;;;;;;;;;;;;7.67;66.01;100194.06;5012685;28;19916;-78
2023/01/10 04:18:46;;;;;;;;;;;;;;;7.62;66.09;100207.72;5018732;28;19913;-80
2023/01/10 04:21:30;;;;;;;;;;;;;;;7.64;65.14;100210.94;5011037;28;19913;-78
2023/01/10 04:24:15;;;;;;;;;;;;;;;7.56;65.99;100212.47;5016995;28;19917;-79
2023/01/10 04:26:59;;;;;;;;;;;;;;;7.64;65.83;100221.75;5012623;28;19913;-78
2023/01/10 04:29:45;;;;;;;;;;;;;;;7.81;66.07;100223.78;4999851;28;20296;-79
2023/01/10 04:32:29;;;;;;;;;;;;;;;7.72;65.25;100221.81;5013389;28;19913;-80
2023/01/10 04:35:14;;;;;;;;;;;;;;;7.82;63.33;100215.38;5018886;28;19921;-79
2023/01/10 04:37:58;;;;;;;;;;;;;;;7.80;62.64;100216.78;5014669;28;19913;-80
2023/01/10 04:40:43;;;;;;;;;;;;;;;7.85;62.80;100222.06;5023925;28;20379;-79
2023/01/10 04:43:27;;;;;;;;;;;;;;;7.89;62.33;100228.44;5029060;28;19913;-79
2023/01/10 04:46:12;;;;;;;;;;;;;;;7.91;63.00;100231.66;4999315;28;19914;-78
2023/01/10 04:48:57;;;;;;;;;;;;;;;7.83;62.37;100240.50;4997954;28;19917;-78
2023/01/10 04:51:41;;;;;;;;;;;;;;;7.79;62.89;100240.31;5010910;28;19914;-78
2023/01/10 04:54:26;;;;;;;;;;;;;;;7.85;61.62;100241.81;5016659;28;19917;-78
2023/01/10 04:57:10;;;;;;;;;;;;;;;7.82;62.65;100252.47;5005818;28;19914;-78
2023/01/10 04:59:55;;;;;;;;;;;;;;;7.83;61.27;100251.31;5020422;28;19921;-79
2023/01/10 05:02:42;;;;;;;;;;;;;;;7.86;60.51;100250.72;5021506;28;19914;-79
2023/01/10 05:05:27;;;;;;;;;;;;;;;7.85;59.91;100268.06;5012307;28;19913;-79
2023/01/10 05:08:11;;;;;;;;;;;;;;;7.93;60.06;100259.19;5012183;28;20389;-79
2023/01/10 05:10:56;;;;;;;;;;;;;;;8.01;60.55;100272.00;5012451;28;19913;-79
2023/01/10 05:13:40;;;;;;;;;;;;;;;7.99;59.69;100266.09;5011468;28;19913;-79
2023/01/10 05:16:25;;;;;;;;;;;;;;;8.07;59.48;100278.91;5007570;28;19917;-79
2023/01/10 05:19:11;;;;;;;;;;;;;;;8.07;59.36;100274.28;5008976;28;20300;-79
2023/01/10 05:21:55;;;;;;;;;;;;;;;8.03;59.59;100280.59;5014367;28;19913;-78
2023/01/10 05:24:39;;;;;;;;;;;;;;;7.97;60.54;100285.38;5021502;28;20300;-79
2023/01/10 05:27:24;;;;;;;;;;;;;;;7.96;59.67;100291.88;5010675;28;19917;-80
2023/01/10 05:30:10;;;;;;;;;;;;;;;7.88;59.92;100291.81;5000507;28;19913;-79
2023/01/10 05:32:55;;;;;;;;;;;;;;;7.88;59.66;100291.81;5011053;28;19918;-79
2023/01/10 05:35:39;;;;;;;;;;;;;;;7.79;59.73;100304.47;5024098;28;19917;-79
2023/01/10 05:38:24;;;;;;;;;;;;;;;7.70;60.09;100296.31;4995344;28;19941;-79
2023/01/10 05:41:08;;;;;;;;;;;;;;;7.72;60.76;100313.81;5016692;28;19913;-79
2023/01/10 05:43:53;;;;;;;;;;;;;;;7.74;59.67;100322.44;5015150;28;19912;-79
2023/01/10 05:46:37;;;;;;;;;;;;;;;7.68;59.84;100326.38;5029858;28;20384;-79
2023/01/10 05:49:21;;;;;;;;;;;;;;;7.67;59.47;100324.75;5014527;28;19913;-79
2023/01/10 05:52:06;;;;;;;;;;;;;;;7.68;58.52;100323.66;5015665;28;19914;-79
2023/01/10 05:54:50;;;;;;;;;;;;;;;7.70;58.84;100326.88;5015280;28;20400;-78
2023/01/10 05:57:34;;;;;;;;;;;;;;;7.64;58.40;100330.78;5022552;28;20309;-78
2023/01/10 06:00:19;;;;;;;;;;;;;;;7.60;59.35;100327.09;5025512;28;19913;-79
2023/01/10 06:03:04;;;;;;;;;;;;;;;7.63;58.90;100333.78;5027015;28;19917;-79
2023/01/10 06:05:48;;;;;;;;;;;;;;;7.81;58.16;100343.69;5027185;28;19913;-79
2023/01/10 06:08:32;;;;;;;;;;;;;;;7.76;57.72;100351.91;5023192;28;19913;-79
2023/01/10 06:11:17;;;;;;;;;;;;;;;7.62;58.29;100354.63;4996265;28;19914;-79
2023/01/10 06:14:01;;;;;;;;;;;;;;;7.69;58.96;100363.16;4995677;28;19914;-79
2023/01/10 06:16:46;;;;;;;;;;;;;;;7.68;58.15;100377.78;5010205;28;19917;-79
2023/01/10 06:19:31;;;;;;;;;;;;;;;7.77;58.42;100377.09;5016615;28;19913;-80
2023/01/10 06:22:15;;;;;;;;;;;;;;;7.84;57.36;100378.25;5019458;28;20483;-79
2023/01/10 06:25:00;;;;;;;;;;;;;;;7.84;57.27;100399.09;4994632;28;20316;-80
2023/01/10 06:27:44;;;;;;;;;;;;;;;7.78;57.72;100408.44;5009993;28;19913;-78
2023/01/10 06:30:29;;;;;;;;;;;;;;;7.80;57.59;100409.75;5014562;28;19914;-78
2023/01/10 06:33:13;;;;;;;;;;;;;;;8.26;68.19;100416.81;5002125;28;20304;-79
2023/01/10 06:35:57;;;;;;;;;;;;;;;8.14;62.58;100420.06;5013461;28;19918;-77
2023/01/10 06:38:42;;;;;;;;;;;;;;;6.69;57.64;100423.53;5023288;28;19913;-77
2023/01/10 06:41:26;;;;;;;;;;;;;;;6.26;60.58;100424.75;5024391;28;19913;-78
2023/01/10 06:44:11;;;;;;;;;;;;;;;6.18;60.29;100437.03;5021069;28;19913;-78
2023/01/10 06:46:55;;;;;;;;;;;;;;;6.85;64.70;100445.69;5013505;28;19914;-78
2023/01/10 06:49:39;;;;;;;;;;;;;;;7.12;66.62;100453.03;5013562;28;19913;-77
2023/01/10 06:52:24;;;;;;;;;;;;;;;8.00;66.61;100462.63;5013496;28;19917;-78
2023/01/10 06:55:08;;;;;;;;;;;;;;;9.26;64.13;100475.84;5013291;28;19917;-77
2023/01/10 06:58:00;;;;;;;;;;;;;;;9.60;61.28;100485.28;5002475;28;20296;-77
2023/01/10 07:00:44;;;;;;;;;;;;;;;9.43;59.23;100488.72;5002170;28;20284;-77
2023/01/10 07:03:28;;;;;;;;;;;;;;;9.42;58.40;100487.91;5013354;28;20293;-78
2023/01/10 07:06:13;;;;;;;;;;;;;;;9.56;58.12;100487.00;4999688;28;19913;-77
2023/01/10 07:08:58;;;;;;;;;;;;;;;9.39;55.70;100496.69;5003205;28;19914;-77
2023/01/10 07:11:42;;;;;;;;;;;;;;;8.87;57.92;100503.72;5024411;28;19913;-78
2023/01/10 07:14:26;;;;;;;;;;;;;;;9.58;58.00;100511.91;5032889;28;19913;-78
2023/01/10 07:17:11;;;;;;;;;;;;;;;9.61;54.22;100517.50;5032634;28;19917;-77
2023/01/10 07:19:55;;;;;;;;;;;;;;;9.94;54.92;100519.88;5018803;28;20320;-78
2023/01/10 07:22:39;;;;;;;;;;;;;;;10.12;54.91;100527.75;5011605;28;19913;-77
2023/01/10 07:25:25;;;;;;;;;;;;;;;10.23;52.05;100531.00;5015973;28;19921;-77
2023/01/10 07:28:10;;;;;;;;;;;;;;;10.07;52.28;100535.22;5017511;28;19928;-78
2023/01/10 07:30:57;;;;;;;;;;;;;;;10.26;52.20;100539.31;5014469;28;19913;-78
2023/01/10 07:33:42;;;;;;;;;;;;;;;10.15;52.13;100529.84;5013346;28;19917;-77
2023/01/10 07:36:27;;;;;;;;;;;;;;;10.31;51.86;100540.28;5009698;28;19917;-77
2023/01/10 07:39:11;;;;;;;;;;;;;;;10.03;51.76;100550.56;5012624;28;19913;-78
2023/01/10 07:41:56;;;;;;;;;;;;;;;10.21;52.21;100558.47;5024598;28;19913;-78
2023/01/10 07:44:41;;;;;;;;;;;;;;;10.28;51.82;100566.16;5013490;28;1138406;-74
2023/01/10 07:47:27;;;;;;;;;;;;;;;10.52;50.87;100571.16;5004819;28;19913;-78
2023/01/10 07:50:11;;;;;;;;;;;;;;;10.52;50.41;100584.75;5013202;28;19913;-78
2023/01/10 07:52:57;;;;;;;;;;;;;;;10.63;51.70;100580.59;5013494;28;19913;-80
2023/01/10 07:55:44;;;;;;;;;;;;;;;10.67;50.92;100597.88;5016436;28;19917;-83
2023/01/10 07:58:28;;;;;;;;;;;;;;;10.87;50.95;100597.25;5009858;28;19913;-83
2023/01/10 08:01:13;;;;;;;;;;;;;;;11.04;50.81;100597.25;5017513;28;19913;-82
2023/01/10 08:03:57;;;;;;;;;;;;;;;11.32;49.47;100607.81;5030743;28;20383;-84
2023/01/10 08:06:42;;;;;;;;;;;;;;;11.36;50.41;100611.50;5015579;28;19922;-81
2023/01/10 08:09:26;;;;;;;;;;;;;;;11.48;49.30;100627.94;5001818;28;19913;-81
2023/01/10 08:12:11;;;;;;;;;;;;;;;11.59;48.72;100634.66;5015130;28;19914;-82
2023/01/10 08:14:55;;;;;;;;;;;;;;;11.90;50.64;100643.44;5014157;28;19914;-83
2023/01/10 08:17:40;;;;;;;;;;;;;;;11.90;50.61;100646.16;5027588;28;19913;-81
2023/01/10 08:20:24;;;;;;;;;;;;;;;12.10;49.44;100657.47;5019945;28;19913;-81
2023/01/10 08:23:09;;;;;;;;;;;;;;;11.96;48.98;100660.41;5021490;28;20307;-82
2023/01/10 08:25:56;;;;;;;;;;;;;;;11.74;48.87;100669.59;5015357;28;19913;-82
2023/01/10 08:28:41;;;;;;;;;;;;;;;11.81;49.38;100660.94;5023548;28;19914;-82
2023/01/10 08:31:25;;;;;;;;;;;;;;;11.85;49.54;100678.22;5024591;28;19913;-82
2023/01/10 08:34:11;;;;;;;;;;;;;;;11.47;49.62;100678.09;5015426;28;19921;-82
2023/01/10 08:36:56;;;;;;;;;;;;;;;11.58;49.56;100682.06;5013326;28;19917;-81
2023/01/10 08:39:41;;;;;;;;;;;;;;;11.66;48.30;100694.09;5006573;28;19914;-82
2023/01/10 08:42:25;;;;;;;;;;;;;;;11.62;48.81;100699.41;4990112;28;20289;-84
2023/01/10 08:45:10;;;;;;;;;;;;;;;11.59;49.28;100706.28;5011489;28;19913;-83
2023/01/10 08:47:54;;;;;;;;;;;;;;;11.84;50.24;100715.56;5029981;28;19917;-84
2023/01/10 08:50:39;;;;;;;;;;;;;;;12.12;50.29;100707.81;5038666;28;19913;-84
2023/01/10 08:53:30;;;;;;;;;;;;;;;11.86;46.70;100724.22;5038858;28;19913;-79
2023/01/10 08:56:14;;;;;;;;;;;;;;;10.64;48.05;100734.50;5034254;28;19940;-85
2023/01/10 08:58:59;;;;;;;;;;;;;;;10.12;48.33;100734.22;5024708;28;19913;-80
2023/01/10 09:01:43;;;;;;;;;;;;;;;9.84;48.09;100733.59;5035368;28;19913;-80
2023/01/10 09:04:28;;;;;;;;;;;;;;;9.68;49.98;100745.94;5023248;28;20288;-80
2023/01/10 09:07:13;;;;;;;;;;;;;;;9.54;50.28;100747.91;5023658;28;19913;-79
2023/01/10 09:09:57;;;;;;;;;;;;;;;9.51;50.43;100745.00;5018766;28;19913;-79
2023/01/10 09:12:54;;;;;;;;;;;;;;;9.55;51.30;100765.00;5036973;28;19913;-79
2023/01/10 09:15:40;;;;;;;;;;;;;;;9.56;51.82;100763.88;5036961;28;19917;-80
2023/01/10 09:18:25;;;;;;;;;;;;;;;9.59;51.18;100774.94;5026671;28;19913;-80
2023/01/10 09:21:09;;;;;;;;;;;;;;;9.70;50.29;100775.50;5037401;28;20368;-79
2023/01/10 09:23:54;;;;;;;;;;;;;;;9.70;49.91;100768.13;5037843;28;19913;-79
2023/01/10 09:26:39;;;;;;;;;;;;;;;9.71;50.22;100787.94;5038845;28;20391;-80
2023/01/10 09:29:23;;;;;;;;;;;;;;;9.84;49.73;100787.13;5010331;28;19913;-79
2023/01/10 09:32:08;;;;;;;;;;;;;;;9.91;51.05;100794.81;5008074;28;19913;-80
2023/01/10 09:34:53;;;;;;;;;;;;;;;9.93;51.31;100801.56;5009547;28;19913;-80
2023/01/10 09:37:37;;;;;;;;;;;;;;;9.97;50.64;100801.72;5011865;28;19973;-79
2023/01/10 09:40:40;;;;;;;;;;;;;;;9.99;52.32;100799.53;5018726;28;19914;-79
2023/01/10 09:43:30;;;;;;;;;;;;;;;9.98;52.95;100820.44;5010826;28;19917;-80
2023/01/10 09:46:15;;;;;;;;;;;;;;;10.01;51.43;100817.09;5020457;28;19917;-80
2023/01/10 09:49:18;;;;;;;;;;;;;;;10.07;51.97;100834.09;5014894;28;19914;-80
2023/01/10 09:52:07;;;;;;;;;;;;;;;10.09;52.31;100838.13;5019457;28;20385;-80
2023/01/10 09:54:54;;;;;;;;;;;;;;;10.12;52.11;100853.78;5031478;28;19913;-80
2023/01/10 09:57:38;;;;;;;;;;;;;;;10.22;52.26;100847.31;5018088;28;19917;-79
2023/01/10 10:00:35;;;;;;;;;;;;;;;10.24;52.28;100840.50;5006172;28;19913;-79
2023/01/10 10:03:35;;;;;;;;;;;;;;;10.22;52.86;100844.59;5001462;28;19914;-80
2023/01/10 10:06:21;;;;;;;;;;;;;;;10.20;52.73;100847.66;5002182;28;19913;-80
2023/01/10 10:09:05;;;;;;;;;;;;;;;10.37;52.13;100848.84;5001782;28;19917;-80
2023/01/10 10:12:01;;;;;;;;;;;;;;;10.47;50.72;100859.47;5020799;28;19913;-80
2023/01/10 10:14:52;;;;;;;;;;;;;;;10.56;49.37;100855.72;5009869;28;19917;-79
2023/01/10 10:17:39;;;;;;;;;;;;;;;10.71;47.37;100857.25;5011706;28;19917;-79
2023/01/10 10:20:33;;;;;;;;;;;;;;;10.81;47.28;100854.25;5020377;28;20296;-79
2023/01/10 10:23:17;;;;;;;;;;;;;;;10.78;47.50;100856.78;5020495;28;19913;-79
2023/01/10 10:26:02;;;;;;;;;;;;;;;10.81;47.89;100865.13;5013951;28;19932;-80
2023/01/10 10:28:58;;;;;;;;;;;;;;;10.97;48.37;100874.47;5004528;28;19913;-80
2023/01/10 10:31:52;;;;;;;;;;;;;;;11.02;45.73;100868.88;5021716;28;20299;-79
2023/01/10 10:34:39;;;;;;;;;;;;;;;11.08;46.12;100864.09;5029342;28;19914;-80
2023/01/10 10:37:31;;;;;;;;;;;;;;;11.11;46.53;100869.72;5009463;28;19917;-79
2023/01/10 10:40:21;;;;;;;;;;;;;;;11.13;45.71;100866.69;5012169;28;19913;-80
2023/01/10 10:43:14;;;;;;;;;;;;;;;11.21;45.82;100865.13;5012162;28;19913;-79
2023/01/10 10:46:11;;;;;;;;;;;;;;;11.32;44.92;100863.72;5003686;28;19914;-79
2023/01/10 10:48:56;;;;;;;;;;;;;;;11.33;44.95;100876.19;5003579;28;19913;-79
2023/01/10 10:51:46;;;;;;;;;;;;;;;11.46;46.19;100880.72;5009817;28;20377;-79
2023/01/10 10:54:34;;;;;;;;;;;;;;;11.47;47.97;100874.97;5023311;28;20304;-80
2023/01/10 10:57:22;;;;;;;;;;;;;;;11.42;47.48;100872.41;5011256;28;19921;-80
2023/01/10 11:00:12;;;;;;;;;;;;;;;11.32;48.05;100863.72;5008231;28;20308;-80
2023/01/10 11:03:00;;;;;;;;;;;;;;;11.45;46.26;100860.84;5000571;28;19913;-79
2023/01/10 11:05:45;;;;;;;;;;;;;;;11.33;46.91;100846.25;5004455;28;19913;-79
2023/01/10 11:08:30;;;;;;;;;;;;;;;11.46;46.82;100859.75;5010642;28;20300;-79
2023/01/10 11:11:15;;;;;;;;;;;;;;;11.55;46.01;100846.94;4998879;28;19913;-79
2023/01/10 11:14:02;;;;;;;;;;;;;;;11.60;44.45;100843.25;5004070;28;20380;-79
2023/01/10 11:16:46;;;;;;;;;;;;;;;11.79;43.18;100871.03;5002133;28;20368;-79
2023/01/10 11:19:31;;;;;;;;;;;;;;;11.87;42.18;100872.97;5011157;28;20457;-79
2023/01/10 11:22:15;;;;;;;;;;;;;;;11.91;39.75;100865.75;5004236;28;20384;-79
2023/01/10 11:25:03;;;;;;;;;;;;;;;11.93;38.13;100868.16;5010960;28;20292;-79
2023/01/10 11:27:52;;;;;;;;;;;;;;;11.81;39.45;100876.97;4994000;28;19914;-79
2023/01/10 11:30:36;;;;;;;;;;;;;;;11.93;38.72;100879.88;5002525;28;20304;-79
2023/01/10 11:33:25;;;;;;;;;;;;;;;11.95;39.69;100887.72;5013614;28;19913;-78
2023/01/10 11:36:11;;;;;;;;;;;;;;;12.11;36.92;100875.22;5015779;28;19917;-78
2023/01/10 11:39:00;;;;;;;;;;;;;;;12.15;35.63;100875.34;4994771;28;19913;-79
2023/01/10 11:41:47;;;;;;;;;;;;;;;12.19;36.18;100877.13;5014108;28;19914;-79
2023/01/10 11:44:31;;;;;;;;;;;;;;;12.36;36.08;100871.66;5003631;28;19913;-79
2023/01/10 11:47:19;;;;;;;;;;;;;;;12.55;38.87;100876.75;4985666;28;20292;-79
2023/01/10 11:50:07;;;;;;;;;;;;;;;12.53;38.44;100876.28;5008629;28;19918;-79
2023/01/10 11:52:52;;;;;;;;;;;;;;;12.65;37.42;100883.78;4996592;28;19913;-79
2023/01/10 11:55:37;;;;;;;;;;;;;;;12.50;38.13;100885.09;5001851;28;20389;-79
2023/01/10 11:58:21;;;;;;;;;;;;;;;12.89;40.17;100888.72;5015061;28;20537;-78
2023/01/10 12:01:22;;;;;;;;;;;;;;;12.80;41.30;100886.00;5017267;28;20324;-79
2023/01/10 12:04:14;;;;;;;38.33;14.65;;;;;;;13.70;51.08;100892.03;5011353;28;19913;-80
2023/01/10 12:07:03;;;;;;;6.88;2.28;;;;;;;13.31;40.33;100895.94;4997633;28;20038;-80
2023/01/10 12:09:56;;;;;;;;;;;;;;;13.28;39.90;100893.88;5005082;28;20045;-80
2023/01/10 12:12:51;;;;;;;;;;;;;;;13.20;39.00;100898.25;5032818;28;19913;-79
2023/01/10 12:15:35;;;;;;;;;;;;;;;13.29;39.14;100898.22;5012917;28;19917;-80
2023/01/10 12:18:20;;;;;;;;;;;;;;;13.32;38.48;100896.75;5014083;28;19913;-79
2023/01/10 12:21:04;;;;;;;;;;;;;;;13.36;37.81;100903.94;4998168;28;19913;-80
2023/01/10 12:23:50;;;;;;;;;;;;;;;13.33;36.83;100899.16;5001083;28;19913;-80
2023/01/10 12:26:35;;;;;;;;;;;;;;;13.38;37.72;100898.97;4996728;28;19914;-79
2023/01/10 12:29:23;;;;;;;;;;;;;;;13.45;37.79;100902.00;4996876;28;19913;-78
2023/01/10 12:32:12;;;;;;;;;;;;;;;13.58;39.15;100903.69;4998627;28;20312;-80
2023/01/10 12:35:00;;;;;;;;;;;;;;;13.61;41.02;100897.53;4996415;28;19933;-80
2023/01/10 12:37:49;;;;;;;;;;;;;;;13.67;41.55;100907.16;4995320;28;20353;-80
2023/01/10 12:40:41;;;;;;;;;;;;;;;13.65;39.49;100906.69;4986715;28;19914;-80
2023/01/10 12:46:58;;;;;;;;;;;;;;;13.70;37.14;100902.97;5020908;28;20308;-79
2023/01/10 12:49:56;;;;;;;;;;;;;;;13.76;37.07;100903.59;5007363;28;20381;-80
2023/01/10 12:53:04;;;;;;;;;;;;;;;13.82;36.81;100908.50;5016231;28;19917;-80
2023/01/10 12:55:52;;;;;;;;;;;;;;;13.90;37.94;100915.84;5015536;28;19913;-80
2023/01/10 12:58:36;;;;;;;;;;;;;;;13.90;36.62;100926.78;5024905;28;19912;-79
2023/01/10 13:01:28;;;;;;;;;;;;;;;13.98;36.89;100928.66;5026441;28;19913;-80
2023/01/10 13:04:14;;;;;;;;;;;;;;;14.06;37.09;100927.81;5029632;28;19913;-81
2023/01/10 13:06:59;;;;;;;;;;;;;;;14.14;36.23;100926.13;5023170;28;19913;-79
2023/01/10 13:09:45;;;;;;;;;;;;;;;14.30;35.33;100929.88;5018656;28;19914;-80
2023/01/10 13:12:35;;;;;;;;;;;;;;;14.38;35.68;100931.75;5015205;28;19913;-80
2023/01/10 13:15:27;;;;;;;;;;;;;;;14.44;36.12;100940.56;5013383;28;19912;-81
2023/01/10 13:18:33;;;;;;;;;;;;;;;14.51;35.56;100941.63;5003752;28;19918;-81
2023/01/10 13:21:18;;;;;;;;;;;;;;;14.59;36.04;100944.59;4996395;28;19914;-84
2023/01/10 13:24:04;;;;;;;;;;;;;;;14.68;36.11;100950.81;5010646;28;20393;-80
2023/01/10 13:26:53;;;;;;;;;;;;;;;14.72;37.22;100954.47;5001577;28;19914;-80
2023/01/10 13:29:41;;;;;;;;;;;;;;;14.83;37.94;100952.91;5011814;28;20388;-80
2023/01/10 13:32:25;;;;;;;;;;;;;;;14.72;37.82;100949.00;5020017;28;19917;-80
2023/01/10 13:35:12;;;;;;;;;;;;;;;14.77;37.56;100946.84;5004574;28;19914;-80
2023/01/10 13:37:57;;;;;;;;;;;;;;;14.77;36.58;100951.53;5020240;28;19917;-80
2023/01/10 13:40:54;;;;;;;;;;;;;;;14.86;38.61;100944.81;4992665;28;19913;-80
2023/01/10 13:43:57;;;;;;;;;;;;;;;14.88;39.26;100945.25;5019679;28;19921;-80
2023/01/10 13:46:43;;;;;;;;;;;;;;;14.99;40.08;100943.69;5014355;28;20389;-81
2023/01/10 13:49:38;;;;;;;;;;;;;;;15.08;39.29;100932.66;5015793;28;19914;-80
2023/01/10 13:52:28;;;;;;;;;;;;;;;15.13;38.10;100931.63;5013826;28;19913;-80
2023/01/10 13:55:21;;;;;;;;;;;;;;;15.21;37.78;100925.25;5015212;28;19913;-80
2023/01/10 13:58:12;;;;;;;;;;;;;;;15.30;36.91;100932.22;5013007;28;19921;-80
2023/01/10 14:04:02;;;;;;;;;;;;;;;15.45;37.43;100946.38;5013933;28;19913;-80
2023/01/10 14:06:58;;;;;;;;;;;;;;;15.43;37.40;100954.97;5010797;28;19913;-80
2023/01/10 14:09:44;;;;;;;;;;;;;;;15.37;36.33;100959.88;4998815;28;19918;-80
2023/01/10 14:12:34;;;;;;;;;;;;;;;15.31;36.09;100955.75;5018152;28;19913;-81
2023/01/10 14:15:24;;;;;;;;;;;;;;;15.41;36.12;100965.44;5010617;28;19914;-81
2023/01/10 14:18:21;;;;;;;;;;;;;;;15.38;35.67;100966.94;5018199;28;19917;-81
2023/01/10 14:21:07;;;;;;;;;;;;;;;15.41;36.16;100960.78;5024358;28;19917;-80
2023/01/10 14:23:52;;;;;;;;;;;;;;;15.45;35.47;100960.06;5016133;28;19913;-80
2023/01/10 14:26:39;;;;;;;;;;;;;;;15.51;36.14;100964.19;5000545;28;19913;-81
2023/01/10 14:29:27;;;;;;;;;;;;;;;15.56;35.83;100975.78;5026173;28;19913;-81
2023/01/10 14:32:17;;;;;;;;;;;;;;;15.56;35.57;100977.72;5034872;28;19913;-80
2023/01/10 14:35:05;;;;;;;;;;;;;;;15.53;35.30;100972.91;5013017;28;19913;-80
2023/01/10 14:37:52;;;;;;;;;;;;;;;15.53;35.11;100972.91;5007418;28;19917;-81